MMAS/AGU METAR and TAF weather

Enter ICAO airport designator
Station Type Date Time Source
MMAS METAR 2020/04/05 19:42 UTC NOAA

MMAS 051942Z 18010KT 10SM SCT200 28/M05 A3015 RMK 8/002 PRESFR


Station Type Date Time Source
MMAS Decoded METAR 2020/04/05 19:42 UTC NOAA

Aguascalientes, Ags., Mexico (MMAS) 21-53N 102-18W
Apr 05, 2020 - 03:42 PM EDT / 2020.04.05 1942 UTC
Wind: from the S (180 degrees) at 12 MPH (10 KT):0
Visibility: 10 mile(s):0
Sky conditions: partly cloudy
Temperature: 82 F (28 C)
Dew Point: 23 F (-5 C)
Relative Humidity: 11%
Pressure (altimeter): 30.15 in. Hg (1020 hPa)
Pressure tendency: falling rapidly
ob: MMAS 051942Z 18010KT 10SM SCT200 28/M05 A3015 RMK 8/002 PRESFR
cycle: 19

Station Type Date Time Source
MMAS TAF 2020/04/05 18:37 UTC NOAA

TAF MMAS 051629Z 0518/0618 26010KT P6SM BKN230
BECMG 0601/0602 00000KT
FM061500 22010KT P6SM SCT250

Example: see airport list